sensor_id;sensor_type;location;lat;lon;timestamp;P1;durP1;ratioP1;P2;durP2;ratioP2
7338;SDS011;33747;49.524;8.390;2022-10-16T00:01:30;2.25;;;1.45;;
7338;SDS011;33747;49.524;8.390;2022-10-16T00:03:56;1.73;;;1.55;;
7338;SDS011;33747;49.524;8.390;2022-10-16T00:06:22;5.00;;;1.52;;
7338;SDS011;33747;49.524;8.390;2022-10-16T00:08:49;3.78;;;1.50;;
7338;SDS011;33747;49.524;8.390;2022-10-16T00:11:25;2.50;;;1.60;;
7338;SDS011;33747;49.524;8.390;2022-10-16T00:13:54;6.10;;;1.70;;
7338;SDS011;33747;49.524;8.390;2022-10-16T00:16:21;1.55;;;1.35;;
7338;SDS011;33747;49.524;8.390;2022-10-16T00:18:46;3.10;;;1.85;;
7338;SDS011;33747;49.524;8.390;2022-10-16T00:21:13;2.90;;;1.40;;
7338;SDS011;33747;49.524;8.390;2022-10-16T00:23:40;2.47;;;1.88;;
7338;SDS011;33747;49.524;8.390;2022-10-16T00:26:08;4.30;;;2.00;;
7338;SDS011;33747;49.524;8.390;2022-10-16T00:28:36;2.38;;;1.20;;
7338;SDS011;33747;49.524;8.390;2022-10-16T00:31:05;2.63;;;1.70;;
7338;SDS011;33747;49.524;8.390;2022-10-16T00:33:31;5.70;;;1.98;;
7338;SDS011;33747;49.524;8.390;2022-10-16T00:35:57;2.13;;;1.70;;
7338;SDS011;33747;49.524;8.390;2022-10-16T00:38:23;7.53;;;1.95;;
7338;SDS011;33747;49.524;8.390;2022-10-16T00:40:49;1.50;;;1.40;;
7338;SDS011;33747;49.524;8.390;2022-10-16T00:43:32;4.07;;;1.75;;
7338;SDS011;33747;49.524;8.390;2022-10-16T00:46:02;8.02;;;2.10;;
7338;SDS011;33747;49.524;8.390;2022-10-16T00:51:30;3.28;;;1.80;;
7338;SDS011;33747;49.524;8.390;2022-10-16T00:53:58;3.42;;;1.60;;
7338;SDS011;33747;49.524;8.390;2022-10-16T00:56:24;1.92;;;1.70;;
7338;SDS011;33747;49.524;8.390;2022-10-16T00:58:49;3.83;;;1.67;;
7338;SDS011;33747;49.524;8.390;2022-10-16T01:01:14;4.72;;;2.15;;
7338;SDS011;33747;49.524;8.390;2022-10-16T01:03:40;6.90;;;1.80;;
7338;SDS011;33747;49.524;8.390;2022-10-16T01:06:17;1.90;;;1.80;;
7338;SDS011;33747;49.524;8.390;2022-10-16T01:08:46;3.35;;;1.65;;
7338;SDS011;33747;49.524;8.390;2022-10-16T01:11:28;1.45;;;1.35;;
7338;SDS011;33747;49.524;8.390;2022-10-16T01:13:55;4.70;;;2.10;;
7338;SDS011;33747;49.524;8.390;2022-10-16T01:16:30;3.55;;;1.65;;
7338;SDS011;33747;49.524;8.390;2022-10-16T01:19:36;4.45;;;1.83;;
7338;SDS011;33747;49.524;8.390;2022-10-16T01:22:09;3.33;;;2.05;;
7338;SDS011;33747;49.524;8.390;2022-10-16T01:24:38;2.55;;;1.70;;
7338;SDS011;33747;49.524;8.390;2022-10-16T01:27:15;4.97;;;1.50;;
7338;SDS011;33747;49.524;8.390;2022-10-16T01:35:16;8.82;;;2.25;;
7338;SDS011;33747;49.524;8.390;2022-10-16T01:40:26;2.53;;;1.58;;
7338;SDS011;33747;49.524;8.390;2022-10-16T01:42:53;3.10;;;1.70;;
7338;SDS011;33747;49.524;8.390;2022-10-16T01:45:22;3.25;;;1.60;;
7338;SDS011;33747;49.524;8.390;2022-10-16T01:47:48;6.93;;;2.72;;
7338;SDS011;33747;49.524;8.390;2022-10-16T01:50:15;6.72;;;2.33;;
7338;SDS011;33747;49.524;8.390;2022-10-16T01:52:42;4.88;;;1.88;;
7338;SDS011;33747;49.524;8.390;2022-10-16T01:55:10;2.20;;;1.70;;
7338;SDS011;33747;49.524;8.390;2022-10-16T01:57:38;6.38;;;2.05;;
7338;SDS011;33747;49.524;8.390;2022-10-16T02:00:07;4.13;;;2.30;;
7338;SDS011;33747;49.524;8.390;2022-10-16T02:02:35;3.75;;;1.85;;
7338;SDS011;33747;49.524;8.390;2022-10-16T02:05:20;2.40;;;1.80;;
7338;SDS011;33747;49.524;8.390;2022-10-16T02:07:49;7.25;;;2.00;;
7338;SDS011;33747;49.524;8.390;2022-10-16T02:10:15;3.63;;;2.00;;
7338;SDS011;33747;49.524;8.390;2022-10-16T02:12:42;2.08;;;1.70;;
7338;SDS011;33747;49.524;8.390;2022-10-16T02:15:11;4.38;;;1.90;;
7338;SDS011;33747;49.524;8.390;2022-10-16T02:17:37;4.95;;;1.90;;
7338;SDS011;33747;49.524;8.390;2022-10-16T02:20:02;5.25;;;1.75;;
7338;SDS011;33747;49.524;8.390;2022-10-16T02:22:32;4.13;;;1.70;;
7338;SDS011;33747;49.524;8.390;2022-10-16T02:30:21;2.00;;;1.80;;
7338;SDS011;33747;49.524;8.390;2022-10-16T02:32:50;6.72;;;1.50;;
7338;SDS011;33747;49.524;8.390;2022-10-16T02:35:17;5.82;;;1.90;;
7338;SDS011;33747;49.524;8.390;2022-10-16T02:37:44;4.07;;;1.45;;
7338;SDS011;33747;49.524;8.390;2022-10-16T02:40:10;2.85;;;1.65;;
7338;SDS011;33747;49.524;8.390;2022-10-16T02:42:37;5.22;;;1.98;;
7338;SDS011;33747;49.524;8.390;2022-10-16T02:45:05;3.13;;;1.65;;
7338;SDS011;33747;49.524;8.390;2022-10-16T02:47:31;1.70;;;1.60;;
7338;SDS011;33747;49.524;8.390;2022-10-16T02:49:56;7.68;;;1.70;;
7338;SDS011;33747;49.524;8.390;2022-10-16T02:52:22;3.60;;;1.52;;
7338;SDS011;33747;49.524;8.390;2022-10-16T02:54:47;2.90;;;1.33;;
7338;SDS011;33747;49.524;8.390;2022-10-16T02:57:12;3.92;;;1.30;;
7338;SDS011;33747;49.524;8.390;2022-10-16T02:59:38;3.83;;;1.40;;
7338;SDS011;33747;49.524;8.390;2022-10-16T03:02:03;6.55;;;1.67;;
7338;SDS011;33747;49.524;8.390;2022-10-16T03:04:29;2.20;;;1.67;;
7338;SDS011;33747;49.524;8.390;2022-10-16T03:06:54;2.92;;;1.30;;
7338;SDS011;33747;49.524;8.390;2022-10-16T03:09:19;9.43;;;1.55;;
7338;SDS011;33747;49.524;8.390;2022-10-16T03:11:45;3.30;;;1.33;;
7338;SDS011;33747;49.524;8.390;2022-10-16T03:14:10;8.40;;;1.50;;
7338;SDS011;33747;49.524;8.390;2022-10-16T03:16:35;6.88;;;1.70;;
7338;SDS011;33747;49.524;8.390;2022-10-16T03:19:01;12.93;;;1.83;;
7338;SDS011;33747;49.524;8.390;2022-10-16T03:21:26;5.18;;;2.03;;
7338;SDS011;33747;49.524;8.390;2022-10-16T03:23:52;4.65;;;1.40;;
7338;SDS011;33747;49.524;8.390;2022-10-16T03:26:17;6.88;;;1.92;;
7338;SDS011;33747;49.524;8.390;2022-10-16T03:28:42;2.72;;;1.45;;
7338;SDS011;33747;49.524;8.390;2022-10-16T03:31:08;5.57;;;1.60;;
7338;SDS011;33747;49.524;8.390;2022-10-16T03:33:33;12.70;;;1.83;;
7338;SDS011;33747;49.524;8.390;2022-10-16T03:35:59;2.60;;;1.52;;
7338;SDS011;33747;49.524;8.390;2022-10-16T03:38:25;7.20;;;1.40;;
7338;SDS011;33747;49.524;8.390;2022-10-16T03:40:50;4.10;;;1.27;;
7338;SDS011;33747;49.524;8.390;2022-10-16T03:43:15;3.65;;;1.25;;
7338;SDS011;33747;49.524;8.390;2022-10-16T03:45:41;4.30;;;1.33;;
7338;SDS011;33747;49.524;8.390;2022-10-16T03:48:06;3.70;;;1.52;;
7338;SDS011;33747;49.524;8.390;2022-10-16T03:50:32;3.72;;;1.30;;
7338;SDS011;33747;49.524;8.390;2022-10-16T03:52:57;3.75;;;1.65;;
7338;SDS011;33747;49.524;8.390;2022-10-16T03:55:22;8.20;;;1.50;;
7338;SDS011;33747;49.524;8.390;2022-10-16T03:57:48;4.95;;;2.08;;
7338;SDS011;33747;49.524;8.390;2022-10-16T04:00:13;3.95;;;1.95;;
7338;SDS011;33747;49.524;8.390;2022-10-16T04:02:39;2.22;;;1.52;;
7338;SDS011;33747;49.524;8.390;2022-10-16T04:05:04;3.83;;;1.70;;
7338;SDS011;33747;49.524;8.390;2022-10-16T04:07:30;3.40;;;1.70;;
7338;SDS011;33747;49.524;8.390;2022-10-16T04:09:56;2.95;;;1.60;;
7338;SDS011;33747;49.524;8.390;2022-10-16T04:12:22;12.43;;;1.90;;
7338;SDS011;33747;49.524;8.390;2022-10-16T04:14:48;1.73;;;1.35;;
7338;SDS011;33747;49.524;8.390;2022-10-16T04:17:13;3.67;;;1.30;;
7338;SDS011;33747;49.524;8.390;2022-10-16T04:19:38;8.15;;;1.85;;
7338;SDS011;33747;49.524;8.390;2022-10-16T04:22:04;12.85;;;2.95;;
7338;SDS011;33747;49.524;8.390;2022-10-16T04:24:29;8.27;;;1.80;;
7338;SDS011;33747;49.524;8.390;2022-10-16T04:26:55;5.22;;;1.75;;
7338;SDS011;33747;49.524;8.390;2022-10-16T04:29:20;2.65;;;1.50;;
7338;SDS011;33747;49.524;8.390;2022-10-16T04:31:46;3.40;;;1.42;;
7338;SDS011;33747;49.524;8.390;2022-10-16T04:34:11;3.67;;;1.50;;
7338;SDS011;33747;49.524;8.390;2022-10-16T04:36:37;6.25;;;1.80;;
7338;SDS011;33747;49.524;8.390;2022-10-16T04:39:02;3.83;;;1.80;;
7338;SDS011;33747;49.524;8.390;2022-10-16T04:41:27;6.78;;;2.08;;
7338;SDS011;33747;49.524;8.390;2022-10-16T04:43:53;2.25;;;1.60;;
7338;SDS011;33747;49.524;8.390;2022-10-16T04:46:18;3.90;;;1.70;;
7338;SDS011;33747;49.524;8.390;2022-10-16T04:48:43;5.80;;;1.70;;
7338;SDS011;33747;49.524;8.390;2022-10-16T04:51:09;10.73;;;2.60;;
7338;SDS011;33747;49.524;8.390;2022-10-16T04:53:34;4.28;;;2.33;;
7338;SDS011;33747;49.524;8.390;2022-10-16T04:56:00;4.85;;;2.33;;
7338;SDS011;33747;49.524;8.390;2022-10-16T04:58:25;5.72;;;2.15;;
7338;SDS011;33747;49.524;8.390;2022-10-16T05:00:51;5.80;;;2.00;;
7338;SDS011;33747;49.524;8.390;2022-10-16T05:03:16;4.40;;;2.00;;
7338;SDS011;33747;49.524;8.390;2022-10-16T05:05:42;4.68;;;1.63;;
7338;SDS011;33747;49.524;8.390;2022-10-16T05:08:09;4.07;;;2.20;;
7338;SDS011;33747;49.524;8.390;2022-10-16T05:10:34;6.10;;;2.70;;
7338;SDS011;33747;49.524;8.390;2022-10-16T05:12:59;4.60;;;2.10;;
7338;SDS011;33747;49.524;8.390;2022-10-16T05:15:25;6.25;;;2.30;;
7338;SDS011;33747;49.524;8.390;2022-10-16T05:17:54;5.18;;;3.00;;
7338;SDS011;33747;49.524;8.390;2022-10-16T05:20:19;6.45;;;2.75;;
7338;SDS011;33747;49.524;8.390;2022-10-16T05:22:45;5.30;;;3.63;;
7338;SDS011;33747;49.524;8.390;2022-10-16T05:25:10;4.43;;;3.00;;
7338;SDS011;33747;49.524;8.390;2022-10-16T05:27:36;3.75;;;2.80;;
7338;SDS011;33747;49.524;8.390;2022-10-16T05:30:01;8.10;;;3.13;;
7338;SDS011;33747;49.524;8.390;2022-10-16T05:32:27;5.03;;;3.08;;
7338;SDS011;33747;49.524;8.390;2022-10-16T05:34:52;4.55;;;2.53;;
7338;SDS011;33747;49.524;8.390;2022-10-16T05:37:17;7.32;;;3.08;;
7338;SDS011;33747;49.524;8.390;2022-10-16T05:39:43;4.72;;;2.95;;
7338;SDS011;33747;49.524;8.390;2022-10-16T05:42:08;6.38;;;3.22;;
7338;SDS011;33747;49.524;8.390;2022-10-16T05:44:34;6.03;;;3.42;;
7338;SDS011;33747;49.524;8.390;2022-10-16T05:46:59;7.78;;;3.15;;
7338;SDS011;33747;49.524;8.390;2022-10-16T05:49:24;6.55;;;2.65;;
7338;SDS011;33747;49.524;8.390;2022-10-16T05:51:50;9.82;;;2.55;;
7338;SDS011;33747;49.524;8.390;2022-10-16T05:54:15;3.40;;;2.47;;
7338;SDS011;33747;49.524;8.390;2022-10-16T05:56:40;7.25;;;2.50;;
7338;SDS011;33747;49.524;8.390;2022-10-16T05:59:06;5.43;;;2.50;;
7338;SDS011;33747;49.524;8.390;2022-10-16T06:01:31;11.93;;;2.90;;
7338;SDS011;33747;49.524;8.390;2022-10-16T06:03:57;3.92;;;2.35;;
7338;SDS011;33747;49.524;8.390;2022-10-16T06:06:24;5.20;;;1.95;;
7338;SDS011;33747;49.524;8.390;2022-10-16T06:08:51;8.30;;;2.60;;
7338;SDS011;33747;49.524;8.390;2022-10-16T06:11:18;12.55;;;2.65;;
7338;SDS011;33747;49.524;8.390;2022-10-16T06:13:44;5.28;;;2.67;;
7338;SDS011;33747;49.524;8.390;2022-10-16T06:16:11;2.85;;;2.25;;
7338;SDS011;33747;49.524;8.390;2022-10-16T06:18:37;9.88;;;2.33;;
7338;SDS011;33747;49.524;8.390;2022-10-16T06:21:13;4.03;;;2.70;;
7338;SDS011;33747;49.524;8.390;2022-10-16T06:23:39;8.98;;;2.20;;
7338;SDS011;33747;49.524;8.390;2022-10-16T06:26:09;2.85;;;2.42;;
7338;SDS011;33747;49.524;8.390;2022-10-16T06:28:35;4.82;;;2.67;;
7338;SDS011;33747;49.524;8.390;2022-10-16T06:31:02;3.75;;;2.70;;
7338;SDS011;33747;49.524;8.390;2022-10-16T06:33:28;5.40;;;2.28;;
7338;SDS011;33747;49.524;8.390;2022-10-16T06:35:53;5.05;;;2.72;;
7338;SDS011;33747;49.524;8.390;2022-10-16T06:38:19;6.82;;;2.92;;
7338;SDS011;33747;49.524;8.390;2022-10-16T06:40:44;2.78;;;2.58;;
7338;SDS011;33747;49.524;8.390;2022-10-16T06:43:09;5.32;;;2.60;;
7338;SDS011;33747;49.524;8.390;2022-10-16T06:45:35;3.25;;;2.95;;
7338;SDS011;33747;49.524;8.390;2022-10-16T06:48:00;8.20;;;2.45;;
7338;SDS011;33747;49.524;8.390;2022-10-16T06:50:25;4.35;;;2.65;;
7338;SDS011;33747;49.524;8.390;2022-10-16T06:52:51;6.55;;;2.70;;
7338;SDS011;33747;49.524;8.390;2022-10-16T06:55:16;5.57;;;2.50;;
7338;SDS011;33747;49.524;8.390;2022-10-16T06:57:42;12.93;;;2.08;;
7338;SDS011;33747;49.524;8.390;2022-10-16T07:00:08;5.53;;;2.28;;
7338;SDS011;33747;49.524;8.390;2022-10-16T07:02:34;6.20;;;1.98;;
7338;SDS011;33747;49.524;8.390;2022-10-16T07:04:59;5.38;;;2.33;;
7338;SDS011;33747;49.524;8.390;2022-10-16T07:07:24;5.60;;;2.17;;
7338;SDS011;33747;49.524;8.390;2022-10-16T07:09:51;6.28;;;2.33;;
7338;SDS011;33747;49.524;8.390;2022-10-16T07:12:16;2.92;;;2.72;;
7338;SDS011;33747;49.524;8.390;2022-10-16T07:14:42;7.13;;;2.65;;
7338;SDS011;33747;49.524;8.390;2022-10-16T07:17:08;3.92;;;2.58;;
7338;SDS011;33747;49.524;8.390;2022-10-16T07:19:33;7.30;;;2.50;;
7338;SDS011;33747;49.524;8.390;2022-10-16T07:21:58;4.95;;;2.53;;
7338;SDS011;33747;49.524;8.390;2022-10-16T07:24:24;3.53;;;2.65;;
7338;SDS011;33747;49.524;8.390;2022-10-16T07:26:49;3.75;;;2.47;;
7338;SDS011;33747;49.524;8.390;2022-10-16T07:29:17;7.55;;;2.58;;
7338;SDS011;33747;49.524;8.390;2022-10-16T07:31:44;4.20;;;2.40;;
7338;SDS011;33747;49.524;8.390;2022-10-16T07:34:10;6.80;;;2.47;;
7338;SDS011;33747;49.524;8.390;2022-10-16T07:36:36;10.55;;;2.65;;
7338;SDS011;33747;49.524;8.390;2022-10-16T07:39:02;7.35;;;2.15;;
7338;SDS011;33747;49.524;8.390;2022-10-16T07:41:28;2.60;;;2.40;;
7338;SDS011;33747;49.524;8.390;2022-10-16T07:43:53;8.60;;;2.45;;
7338;SDS011;33747;49.524;8.390;2022-10-16T07:46:20;7.63;;;2.33;;
7338;SDS011;33747;49.524;8.390;2022-10-16T07:48:46;4.43;;;2.63;;
7338;SDS011;33747;49.524;8.390;2022-10-16T07:51:13;4.18;;;2.58;;
7338;SDS011;33747;49.524;8.390;2022-10-16T07:53:46;4.55;;;2.20;;
7338;SDS011;33747;49.524;8.390;2022-10-16T07:56:12;8.15;;;2.55;;
7338;SDS011;33747;49.524;8.390;2022-10-16T07:58:37;12.43;;;2.45;;
7338;SDS011;33747;49.524;8.390;2022-10-16T08:01:04;6.40;;;2.78;;
7338;SDS011;33747;49.524;8.390;2022-10-16T08:03:30;7.45;;;2.63;;
7338;SDS011;33747;49.524;8.390;2022-10-16T08:05:56;2.42;;;2.22;;
7338;SDS011;33747;49.524;8.390;2022-10-16T08:08:22;3.88;;;2.15;;
7338;SDS011;33747;49.524;8.390;2022-10-16T08:10:47;4.65;;;2.10;;
7338;SDS011;33747;49.524;8.390;2022-10-16T08:13:13;4.07;;;2.15;;
7338;SDS011;33747;49.524;8.390;2022-10-16T08:15:40;8.60;;;2.15;;
7338;SDS011;33747;49.524;8.390;2022-10-16T08:18:06;5.30;;;2.22;;
7338;SDS011;33747;49.524;8.390;2022-10-16T08:20:31;3.97;;;2.40;;
7338;SDS011;33747;49.524;8.390;2022-10-16T08:22:57;3.83;;;3.00;;
7338;SDS011;33747;49.524;8.390;2022-10-16T08:25:24;7.32;;;2.25;;
7338;SDS011;33747;49.524;8.390;2022-10-16T08:27:49;3.75;;;2.47;;
7338;SDS011;33747;49.524;8.390;2022-10-16T08:30:15;10.23;;;2.13;;
7338;SDS011;33747;49.524;8.390;2022-10-16T08:32:42;2.78;;;2.13;;
7338;SDS011;33747;49.524;8.390;2022-10-16T08:35:08;5.18;;;2.00;;
7338;SDS011;33747;49.524;8.390;2022-10-16T08:37:37;6.00;;;2.65;;
7338;SDS011;33747;49.524;8.390;2022-10-16T08:40:02;3.80;;;2.38;;
7338;SDS011;33747;49.524;8.390;2022-10-16T08:42:37;12.07;;;3.25;;
7338;SDS011;33747;49.524;8.390;2022-10-16T08:50:43;9.23;;;2.90;;
7338;SDS011;33747;49.524;8.390;2022-10-16T08:53:13;7.57;;;3.08;;
7338;SDS011;33747;49.524;8.390;2022-10-16T08:55:41;6.63;;;3.30;;
7338;SDS011;33747;49.524;8.390;2022-10-16T08:58:18;6.70;;;2.95;;
7338;SDS011;33747;49.524;8.390;2022-10-16T09:00:46;8.00;;;2.92;;
7338;SDS011;33747;49.524;8.390;2022-10-16T09:03:16;6.75;;;2.30;;
7338;SDS011;33747;49.524;8.390;2022-10-16T09:05:52;10.60;;;2.50;;
7338;SDS011;33747;49.524;8.390;2022-10-16T09:08:35;2.35;;;1.95;;
7338;SDS011;33747;49.524;8.390;2022-10-16T09:13:43;8.63;;;1.80;;
7338;SDS011;33747;49.524;8.390;2022-10-16T09:23:57;3.72;;;2.45;;
7338;SDS011;33747;49.524;8.390;2022-10-16T09:26:25;6.93;;;3.47;;
7338;SDS011;33747;49.524;8.390;2022-10-16T09:28:51;4.47;;;2.70;;
7338;SDS011;33747;49.524;8.390;2022-10-16T09:31:19;6.68;;;2.42;;
7338;SDS011;33747;49.524;8.390;2022-10-16T09:33:47;3.15;;;2.20;;
7338;SDS011;33747;49.524;8.390;2022-10-16T09:36:15;7.13;;;2.20;;
7338;SDS011;33747;49.524;8.390;2022-10-16T09:38:41;3.80;;;2.35;;
7338;SDS011;33747;49.524;8.390;2022-10-16T09:46:07;5.47;;;2.03;;
7338;SDS011;33747;49.524;8.390;2022-10-16T09:48:35;4.35;;;2.42;;
7338;SDS011;33747;49.524;8.390;2022-10-16T09:51:03;3.58;;;2.55;;
7338;SDS011;33747;49.524;8.390;2022-10-16T09:53:42;6.43;;;2.58;;
7338;SDS011;33747;49.524;8.390;2022-10-16T09:56:09;4.82;;;2.08;;
7338;SDS011;33747;49.524;8.390;2022-10-16T09:58:41;4.30;;;2.28;;
7338;SDS011;33747;49.524;8.390;2022-10-16T10:01:11;8.10;;;3.33;;
7338;SDS011;33747;49.524;8.390;2022-10-16T10:03:39;4.90;;;2.60;;
7338;SDS011;33747;49.524;8.390;2022-10-16T10:09:45;8.77;;;2.30;;
7338;SDS011;33747;49.524;8.390;2022-10-16T10:12:20;5.07;;;2.30;;
7338;SDS011;33747;49.524;8.390;2022-10-16T10:14:47;5.82;;;2.42;;
7338;SDS011;33747;49.524;8.390;2022-10-16T10:17:18;6.70;;;2.47;;
7338;SDS011;33747;49.524;8.390;2022-10-16T10:20:00;11.07;;;2.40;;
7338;SDS011;33747;49.524;8.390;2022-10-16T10:25:15;7.03;;;2.25;;
7338;SDS011;33747;49.524;8.390;2022-10-16T10:30:47;14.50;;;2.67;;
7338;SDS011;33747;49.524;8.390;2022-10-16T10:33:37;7.25;;;2.65;;
7338;SDS011;33747;49.524;8.390;2022-10-16T10:38:59;5.93;;;2.60;;
7338;SDS011;33747;49.524;8.390;2022-10-16T10:44:37;7.85;;;3.20;;
7338;SDS011;33747;49.524;8.390;2022-10-16T10:47:15;8.15;;;2.55;;
7338;SDS011;33747;49.524;8.390;2022-10-16T10:49:51;10.52;;;2.72;;
7338;SDS011;33747;49.524;8.390;2022-10-16T10:55:31;7.28;;;2.80;;
7338;SDS011;33747;49.524;8.390;2022-10-16T11:03:27;3.65;;;2.25;;
7338;SDS011;33747;49.524;8.390;2022-10-16T11:06:18;6.13;;;2.10;;
7338;SDS011;33747;49.524;8.390;2022-10-16T11:09:36;2.95;;;1.83;;
7338;SDS011;33747;49.524;8.390;2022-10-16T11:11:38;5.30;;;1.98;;
7338;SDS011;33747;49.524;8.390;2022-10-16T11:14:22;7.50;;;1.55;;
7338;SDS011;33747;49.524;8.390;2022-10-16T11:16:56;5.13;;;1.98;;
7338;SDS011;33747;49.524;8.390;2022-10-16T11:19:27;5.28;;;1.90;;
7338;SDS011;33747;49.524;8.390;2022-10-16T11:22:12;3.85;;;2.20;;
7338;SDS011;33747;49.524;8.390;2022-10-16T11:24:59;5.47;;;2.30;;
7338;SDS011;33747;49.524;8.390;2022-10-16T11:30:30;2.40;;;1.70;;
7338;SDS011;33747;49.524;8.390;2022-10-16T11:41:39;6.90;;;1.83;;
7338;SDS011;33747;49.524;8.390;2022-10-16T11:49:30;5.15;;;1.70;;
7338;SDS011;33747;49.524;8.390;2022-10-16T11:57:38;4.25;;;1.48;;
7338;SDS011;33747;49.524;8.390;2022-10-16T12:00:07;4.55;;;1.45;;
7338;SDS011;33747;49.524;8.390;2022-10-16T12:10:38;4.72;;;1.58;;
7338;SDS011;33747;49.524;8.390;2022-10-16T12:13:25;2.42;;;1.50;;
7338;SDS011;33747;49.524;8.390;2022-10-16T12:18:38;3.63;;;1.80;;
7338;SDS011;33747;49.524;8.390;2022-10-16T12:21:04;6.60;;;1.88;;
7338;SDS011;33747;49.524;8.390;2022-10-16T12:23:31;4.57;;;1.60;;
7338;SDS011;33747;49.524;8.390;2022-10-16T12:25:58;7.63;;;2.15;;
7338;SDS011;33747;49.524;8.390;2022-10-16T12:28:28;3.50;;;1.70;;
7338;SDS011;33747;49.524;8.390;2022-10-16T12:30:56;3.30;;;1.58;;
7338;SDS011;33747;49.524;8.390;2022-10-16T12:35:55;2.83;;;1.50;;
7338;SDS011;33747;49.524;8.390;2022-10-16T12:38:28;2.50;;;1.67;;
7338;SDS011;33747;49.524;8.390;2022-10-16T12:41:06;2.97;;;1.40;;
7338;SDS011;33747;49.524;8.390;2022-10-16T12:48:37;3.08;;;1.40;;
7338;SDS011;33747;49.524;8.390;2022-10-16T12:56:35;1.98;;;1.55;;
7338;SDS011;33747;49.524;8.390;2022-10-16T13:10:37;1.75;;;1.48;;
7338;SDS011;33747;49.524;8.390;2022-10-16T13:15:56;2.90;;;1.92;;
7338;SDS011;33747;49.524;8.390;2022-10-16T13:18:41;5.47;;;2.40;;
7338;SDS011;33747;49.524;8.390;2022-10-16T13:24:02;4.22;;;1.83;;
7338;SDS011;33747;49.524;8.390;2022-10-16T13:27:07;4.20;;;1.90;;
7338;SDS011;33747;49.524;8.390;2022-10-16T13:29:35;5.82;;;1.67;;
7338;SDS011;33747;49.524;8.390;2022-10-16T13:32:01;10.40;;;2.00;;
7338;SDS011;33747;49.524;8.390;2022-10-16T13:34:33;2.95;;;2.10;;
7338;SDS011;33747;49.524;8.390;2022-10-16T13:37:20;3.40;;;2.03;;
7338;SDS011;33747;49.524;8.390;2022-10-16T13:39:47;5.53;;;2.15;;
7338;SDS011;33747;49.524;8.390;2022-10-16T13:42:21;4.97;;;2.17;;
7338;SDS011;33747;49.524;8.390;2022-10-16T13:44:49;6.38;;;1.92;;
7338;SDS011;33747;49.524;8.390;2022-10-16T13:47:17;7.22;;;2.10;;
7338;SDS011;33747;49.524;8.390;2022-10-16T13:49:46;9.20;;;1.80;;
7338;SDS011;33747;49.524;8.390;2022-10-16T13:52:19;4.45;;;1.73;;
7338;SDS011;33747;49.524;8.390;2022-10-16T13:54:45;5.28;;;2.25;;
7338;SDS011;33747;49.524;8.390;2022-10-16T13:57:12;3.35;;;1.98;;
7338;SDS011;33747;49.524;8.390;2022-10-16T13:59:39;7.88;;;2.22;;
7338;SDS011;33747;49.524;8.390;2022-10-16T14:02:18;6.18;;;1.88;;
7338;SDS011;33747;49.524;8.390;2022-10-16T14:04:51;5.90;;;1.67;;
7338;SDS011;33747;49.524;8.390;2022-10-16T14:07:29;3.40;;;1.85;;
7338;SDS011;33747;49.524;8.390;2022-10-16T14:09:57;5.63;;;2.22;;
7338;SDS011;33747;49.524;8.390;2022-10-16T14:12:31;5.80;;;1.70;;
7338;SDS011;33747;49.524;8.390;2022-10-16T14:14:57;4.68;;;1.80;;
7338;SDS011;33747;49.524;8.390;2022-10-16T14:17:28;4.47;;;1.95;;
7338;SDS011;33747;49.524;8.390;2022-10-16T14:19:59;3.00;;;1.90;;
7338;SDS011;33747;49.524;8.390;2022-10-16T14:22:28;2.45;;;1.80;;
7338;SDS011;33747;49.524;8.390;2022-10-16T14:24:56;7.53;;;1.83;;
7338;SDS011;33747;49.524;8.390;2022-10-16T14:27:32;2.95;;;1.40;;
7338;SDS011;33747;49.524;8.390;2022-10-16T14:32:32;5.38;;;1.70;;
7338;SDS011;33747;49.524;8.390;2022-10-16T14:34:58;4.40;;;2.42;;
7338;SDS011;33747;49.524;8.390;2022-10-16T14:39:52;4.63;;;1.73;;
7338;SDS011;33747;49.524;8.390;2022-10-16T14:42:19;7.38;;;1.83;;
7338;SDS011;33747;49.524;8.390;2022-10-16T14:44:45;6.25;;;2.05;;
7338;SDS011;33747;49.524;8.390;2022-10-16T14:47:13;9.68;;;2.13;;
7338;SDS011;33747;49.524;8.390;2022-10-16T14:49:39;6.68;;;2.00;;
7338;SDS011;33747;49.524;8.390;2022-10-16T14:52:12;5.10;;;2.20;;
7338;SDS011;33747;49.524;8.390;2022-10-16T14:54:38;6.72;;;2.80;;
7338;SDS011;33747;49.524;8.390;2022-10-16T14:57:03;5.20;;;2.70;;
7338;SDS011;33747;49.524;8.390;2022-10-16T14:59:39;3.50;;;2.45;;
7338;SDS011;33747;49.524;8.390;2022-10-16T15:02:13;4.93;;;2.60;;
7338;SDS011;33747;49.524;8.390;2022-10-16T15:04:54;10.15;;;2.90;;
7338;SDS011;33747;49.524;8.390;2022-10-16T15:07:20;4.35;;;2.78;;
7338;SDS011;33747;49.524;8.390;2022-10-16T15:09:45;4.65;;;2.58;;
7338;SDS011;33747;49.524;8.390;2022-10-16T15:12:11;5.20;;;1.90;;
7338;SDS011;33747;49.524;8.390;2022-10-16T15:14:36;5.68;;;2.50;;
7338;SDS011;33747;49.524;8.390;2022-10-16T15:17:02;5.85;;;1.80;;
7338;SDS011;33747;49.524;8.390;2022-10-16T15:19:28;10.55;;;2.10;;
7338;SDS011;33747;49.524;8.390;2022-10-16T15:21:53;2.15;;;1.90;;
7338;SDS011;33747;49.524;8.390;2022-10-16T15:24:18;4.45;;;2.08;;
7338;SDS011;33747;49.524;8.390;2022-10-16T15:26:44;6.43;;;1.70;;
7338;SDS011;33747;49.524;8.390;2022-10-16T15:29:11;2.17;;;1.55;;
7338;SDS011;33747;49.524;8.390;2022-10-16T15:31:37;11.05;;;2.47;;
7338;SDS011;33747;49.524;8.390;2022-10-16T15:34:02;6.57;;;2.00;;
7338;SDS011;33747;49.524;8.390;2022-10-16T15:36:29;4.10;;;2.00;;
7338;SDS011;33747;49.524;8.390;2022-10-16T15:38:58;5.88;;;1.83;;
7338;SDS011;33747;49.524;8.390;2022-10-16T15:41:24;4.80;;;1.90;;
7338;SDS011;33747;49.524;8.390;2022-10-16T15:43:49;8.15;;;2.22;;
7338;SDS011;33747;49.524;8.390;2022-10-16T15:46:17;5.25;;;2.10;;
7338;SDS011;33747;49.524;8.390;2022-10-16T15:48:44;21.02;;;2.17;;
7338;SDS011;33747;49.524;8.390;2022-10-16T15:51:09;2.00;;;1.90;;
7338;SDS011;33747;49.524;8.390;2022-10-16T15:53:35;6.40;;;2.72;;
7338;SDS011;33747;49.524;8.390;2022-10-16T15:56:04;2.55;;;2.35;;
7338;SDS011;33747;49.524;8.390;2022-10-16T15:58:30;4.85;;;1.92;;
7338;SDS011;33747;49.524;8.390;2022-10-16T16:00:56;3.80;;;2.20;;
7338;SDS011;33747;49.524;8.390;2022-10-16T16:03:22;6.03;;;2.42;;
7338;SDS011;33747;49.524;8.390;2022-10-16T16:05:47;2.22;;;2.00;;
7338;SDS011;33747;49.524;8.390;2022-10-16T16:08:13;6.03;;;2.92;;
7338;SDS011;33747;49.524;8.390;2022-10-16T16:10:38;21.20;;;4.43;;
7338;SDS011;33747;49.524;8.390;2022-10-16T16:13:03;9.70;;;4.38;;
7338;SDS011;33747;49.524;8.390;2022-10-16T16:15:29;5.78;;;3.85;;
7338;SDS011;33747;49.524;8.390;2022-10-16T16:17:54;10.82;;;3.70;;
7338;SDS011;33747;49.524;8.390;2022-10-16T16:20:20;4.95;;;2.97;;
7338;SDS011;33747;49.524;8.390;2022-10-16T16:22:45;10.77;;;3.88;;
7338;SDS011;33747;49.524;8.390;2022-10-16T16:25:10;6.93;;;3.13;;
7338;SDS011;33747;49.524;8.390;2022-10-16T16:27:36;7.70;;;3.05;;
7338;SDS011;33747;49.524;8.390;2022-10-16T16:30:03;4.72;;;2.92;;
7338;SDS011;33747;49.524;8.390;2022-10-16T16:32:32;3.53;;;3.00;;
7338;SDS011;33747;49.524;8.390;2022-10-16T16:34:57;7.07;;;2.70;;
7338;SDS011;33747;49.524;8.390;2022-10-16T16:37:22;9.32;;;3.17;;
7338;SDS011;33747;49.524;8.390;2022-10-16T16:39:48;6.05;;;2.97;;
7338;SDS011;33747;49.524;8.390;2022-10-16T16:42:13;7.20;;;3.08;;
7338;SDS011;33747;49.524;8.390;2022-10-16T16:44:39;5.50;;;2.70;;
7338;SDS011;33747;49.524;8.390;2022-10-16T16:47:04;5.38;;;2.65;;
7338;SDS011;33747;49.524;8.390;2022-10-16T16:49:30;5.43;;;2.90;;
7338;SDS011;33747;49.524;8.390;2022-10-16T16:51:55;4.63;;;2.58;;
7338;SDS011;33747;49.524;8.390;2022-10-16T16:54:20;4.60;;;3.20;;
7338;SDS011;33747;49.524;8.390;2022-10-16T16:56:46;3.92;;;2.70;;
7338;SDS011;33747;49.524;8.390;2022-10-16T16:59:12;13.63;;;3.75;;
7338;SDS011;33747;49.524;8.390;2022-10-16T17:01:38;14.52;;;4.43;;
7338;SDS011;33747;49.524;8.390;2022-10-16T17:04:05;9.50;;;4.05;;
7338;SDS011;33747;49.524;8.390;2022-10-16T17:06:30;6.85;;;3.97;;
7338;SDS011;33747;49.524;8.390;2022-10-16T17:08:55;7.93;;;3.55;;
7338;SDS011;33747;49.524;8.390;2022-10-16T17:11:23;10.65;;;3.45;;
7338;SDS011;33747;49.524;8.390;2022-10-16T17:13:50;21.05;;;4.20;;
7338;SDS011;33747;49.524;8.390;2022-10-16T17:16:17;10.25;;;4.13;;